METAR rapporten vliegvelden

   
EBAW - Antwerp
Gewijzigd: 13-12-2019 09:50
Lichte (mot)regen, Grotendeels bewolkt  
Lichte (mot)regen, Grotendeels bewolkt  
   Wind: ZW 13 km/h
Wind: ZW 13 km/h
Temperatuur: 6°C
Voelt als: 3°C
Dauwpunt: 5°C
Vochtigheid: 93%
Barometer: 972 hPa
Bewolking: Grotendeels bewolkt
Zicht: 6 km
Bewolking: Gedeeltelijk bewolkt 800 ft,
Grotendeels bewolkt 1300 ft
EBAW 130850Z 23007KT 200V260 6000 -DZ SCT008 BKN013 06/05 Q0972 TEMPO 3500 RADZ BKN008
EBLG - Li├Ęge
Gewijzigd: 13-12-2019 09:50
Wat regen mogelijk, Grotendeels bewolkt  
Wat regen mogelijk, Grotendeels bewolkt  
   Wind: ZW 22.2 km/h<br />Gust to 22.2 km/h
Wind: ZW 22.2 km/h
Gust to 22.2 km/h
Temperatuur: 5°C
Voelt als: 1°C
Dauwpunt: 4°C
Vochtigheid: 93%
Barometer: 973 hPa
Bewolking: Grotendeels bewolkt
Zicht: meer dan 10 km
Bewolking: Gedeeltelijk bewolkt 900 ft,
Grotendeels bewolkt 1200 ft,
Grotendeels bewolkt 1800 ft
EBLG 130850Z 23012G23KT 9999 -RA SCT009 BKN012 BKN018 05/04 Q0973 NOSIG
EBCV - Mons/Bergen
Gewijzigd: 13-12-2019 09:55
Wat regen mogelijk  
Wat regen mogelijk  
   Wind: Westen 33.3 km/h
Wind: Westen 33.3 km/h
Temperatuur: 6°C
Voelt als: 1°C
Dauwpunt: 4°C
Vochtigheid: 87%
Barometer: 975 hPa
Zicht: meer dan 10 km
EBCV 130855Z AUTO 27018KT 9999 -RA /// 06/04 Q0975 BLU
EHBK - Maastricht
Gewijzigd: 13-12-2019 09:55
Motregen, Bewolking  
Motregen, Bewolking  
   Wind: ZZW 20.4 km/h
Wind: ZZW 20.4 km/h
Temperatuur: 5°C
Voelt als: 1°C
Dauwpunt: 5°C
Vochtigheid: 100%
Barometer: 973 hPa
Bewolking: Bewolking
Zicht: meer dan 10 km
Bewolking: Licht bewolkt 500 ft,
Grotendeels bewolkt 700 ft,
Bewolking 800 ft
EHBK 130855Z AUTO 21011KT 9999 DZ FEW005 BKN007 OVC008 05/05 Q0973 TEMPO 6000 -RADZ
ELLX - Luxemburg
Gewijzigd: 13-12-2019 09:50
Wat regen mogelijk, Grotendeels bewolkt  
Wat regen mogelijk, Grotendeels bewolkt  
   Wind: Westen 31.5 km/h
Wind: Westen 31.5 km/h
Temperatuur: 4°C
Voelt als: -1°C
Dauwpunt: 3°C
Vochtigheid: 93%
Barometer: 976 hPa
Bewolking: Grotendeels bewolkt
Zicht: meer dan 10 km
Bewolking: Licht bewolkt 700 ft,
Gedeeltelijk bewolkt 900 ft,
Grotendeels bewolkt 1100 ft
ELLX 130850Z 26017KT 9999 -RA FEW007 SCT009 BKN011 04/03 Q0976 TEMPO 25015G30KT BKN015
EBOS - Oostende
Gewijzigd: 13-12-2019 09:50
Regen, Grotendeels bewolkt  
Regen, Grotendeels bewolkt  
   Wind: NW 40.7 km/h
Wind: NW 40.7 km/h
Temperatuur: 7°C
Voelt als: 2°C
Dauwpunt: 6°C
Vochtigheid: 93%
Barometer: 973 hPa
Bewolking: Grotendeels bewolkt
Zicht: 3.5 km
Bewolking: Licht bewolkt 600 ft,
Gedeeltelijk bewolkt 1000 ft,
Grotendeels bewolkt 1300 ft
EBOS 130850Z 31022KT 3500 RA FEW006 SCT010 BKN013 07/06 Q0973 TEMPO 30026G36KT

Script ontwikkeld door  Saratoga-weather.org Aangepast voor de template door  Weerstation Leuven